sensor_id;sensor_type;location;lat;lon;timestamp;pressure;altitude;pressure_sealevel;temperature;humidity
44697;BME280;57264;47.480;19.354;2022-11-12T00:00:40;100479.97;;;9.31;82.84
44697;BME280;57264;47.480;19.354;2022-11-12T00:03:05;100480.47;;;9.35;81.81
44697;BME280;57264;47.480;19.354;2022-11-12T00:05:31;100483.03;;;9.37;82.18
44697;BME280;57264;47.480;19.354;2022-11-12T00:07:57;100476.69;;;9.46;81.93
44697;BME280;57264;47.480;19.354;2022-11-12T00:10:23;100477.47;;;9.38;81.86
44697;BME280;57264;47.480;19.354;2022-11-12T00:12:48;100468.69;;;9.36;81.48
44697;BME280;57264;47.480;19.354;2022-11-12T00:15:14;100464.78;;;9.30;81.85
44697;BME280;57264;47.480;19.354;2022-11-12T00:17:40;100467.84;;;9.09;82.97
44697;BME280;57264;47.480;19.354;2022-11-12T00:20:06;100464.25;;;9.01;83.50
44697;BME280;57264;47.480;19.354;2022-11-12T00:22:32;100458.97;;;9.17;83.64
44697;BME280;57264;47.480;19.354;2022-11-12T00:24:57;100463.75;;;9.23;83.93
44697;BME280;57264;47.480;19.354;2022-11-12T00:27:23;100458.31;;;9.49;82.45
44697;BME280;57264;47.480;19.354;2022-11-12T00:29:49;100463.31;;;9.36;81.67
44697;BME280;57264;47.480;19.354;2022-11-12T00:32:14;100459.38;;;9.30;81.23
44697;BME280;57264;47.480;19.354;2022-11-12T00:34:39;100458.06;;;9.35;82.56
44697;BME280;57264;47.480;19.354;2022-11-12T00:37:05;100455.47;;;9.51;82.05
44697;BME280;57264;47.480;19.354;2022-11-12T00:39:31;100453.78;;;9.50;81.87
44697;BME280;57264;47.480;19.354;2022-11-12T00:41:56;100450.41;;;9.48;82.03
44697;BME280;57264;47.480;19.354;2022-11-12T00:44:22;100449.97;;;9.35;83.17
44697;BME280;57264;47.480;19.354;2022-11-12T00:46:48;100440.47;;;9.48;81.55
44697;BME280;57264;47.480;19.354;2022-11-12T00:49:14;100435.91;;;9.49;82.26
44697;BME280;57264;47.480;19.354;2022-11-12T00:51:40;100438.94;;;9.46;82.37
44697;BME280;57264;47.480;19.354;2022-11-12T00:54:05;100447.03;;;9.46;82.77
44697;BME280;57264;47.480;19.354;2022-11-12T00:56:31;100448.94;;;9.27;84.20
44697;BME280;57264;47.480;19.354;2022-11-12T00:58:57;100439.31;;;9.59;82.24
44697;BME280;57264;47.480;19.354;2022-11-12T01:04:37;100434.41;;;9.55;82.84
44697;BME280;57264;47.480;19.354;2022-11-12T01:07:03;100426.19;;;9.30;83.67
44697;BME280;57264;47.480;19.354;2022-11-12T01:09:28;100431.31;;;9.76;82.76
44697;BME280;57264;47.480;19.354;2022-11-12T01:11:54;100428.22;;;9.70;82.43
44697;BME280;57264;47.480;19.354;2022-11-12T01:14:19;100438.66;;;9.57;82.44
44697;BME280;57264;47.480;19.354;2022-11-12T01:16:45;100431.03;;;9.95;81.92
44697;BME280;57264;47.480;19.354;2022-11-12T01:19:11;100431.84;;;9.87;81.24
44697;BME280;57264;47.480;19.354;2022-11-12T01:21:40;100432.03;;;9.86;81.46
44697;BME280;57264;47.480;19.354;2022-11-12T01:24:06;100436.41;;;9.44;83.08
44697;BME280;57264;47.480;19.354;2022-11-12T01:26:32;100440.03;;;9.35;83.90
44697;BME280;57264;47.480;19.354;2022-11-12T01:28:58;100444.69;;;9.25;84.37
44697;BME280;57264;47.480;19.354;2022-11-12T01:31:28;100434.38;;;9.20;84.98
44697;BME280;57264;47.480;19.354;2022-11-12T01:33:56;100437.03;;;9.12;85.12
44697;BME280;57264;47.480;19.354;2022-11-12T01:36:23;100422.06;;;9.44;84.40
44697;BME280;57264;47.480;19.354;2022-11-12T01:38:50;100427.13;;;9.47;83.88
44697;BME280;57264;47.480;19.354;2022-11-12T01:41:24;100426.44;;;9.45;83.48
44697;BME280;57264;47.480;19.354;2022-11-12T01:44:11;100425.13;;;9.49;83.37
44697;BME280;57264;47.480;19.354;2022-11-12T01:52:09;100426.50;;;9.27;84.45
44697;BME280;57264;47.480;19.354;2022-11-12T01:54:37;100420.44;;;9.25;84.59
44697;BME280;57264;47.480;19.354;2022-11-12T01:57:04;100427.47;;;9.52;83.54
44697;BME280;57264;47.480;19.354;2022-11-12T01:59:37;100433.88;;;9.51;83.27
44697;BME280;57264;47.480;19.354;2022-11-12T02:02:05;100430.63;;;9.39;83.45
44697;BME280;57264;47.480;19.354;2022-11-12T02:04:31;100416.25;;;9.65;82.77
44697;BME280;57264;47.480;19.354;2022-11-12T02:06:58;100417.22;;;9.56;82.52
44697;BME280;57264;47.480;19.354;2022-11-12T02:09:24;100407.94;;;9.50;82.78
44697;BME280;57264;47.480;19.354;2022-11-12T02:11:50;100396.84;;;9.61;82.67
44697;BME280;57264;47.480;19.354;2022-11-12T02:14:16;100400.75;;;9.67;82.36
44697;BME280;57264;47.480;19.354;2022-11-12T02:16:43;100386.47;;;9.83;81.67
44697;BME280;57264;47.480;19.354;2022-11-12T02:19:13;100389.03;;;9.92;80.98
44697;BME280;57264;47.480;19.354;2022-11-12T02:21:39;100391.25;;;10.05;79.88
44697;BME280;57264;47.480;19.354;2022-11-12T02:26:53;100391.56;;;9.94;80.68
44697;BME280;57264;47.480;19.354;2022-11-12T02:29:20;100395.91;;;9.79;81.25
44697;BME280;57264;47.480;19.354;2022-11-12T02:31:46;100394.06;;;9.87;81.05
44697;BME280;57264;47.480;19.354;2022-11-12T02:34:12;100395.44;;;9.83;80.76
44697;BME280;57264;47.480;19.354;2022-11-12T02:36:37;100392.03;;;9.81;80.71
44697;BME280;57264;47.480;19.354;2022-11-12T02:39:03;100397.25;;;9.83;81.37
44697;BME280;57264;47.480;19.354;2022-11-12T02:41:28;100384.91;;;9.72;81.62
44697;BME280;57264;47.480;19.354;2022-11-12T02:43:54;100391.03;;;9.90;81.42
44697;BME280;57264;47.480;19.354;2022-11-12T02:46:19;100397.09;;;9.84;80.71
44697;BME280;57264;47.480;19.354;2022-11-12T02:48:45;100392.09;;;10.06;80.45
44697;BME280;57264;47.480;19.354;2022-11-12T02:51:11;100395.66;;;10.06;80.29
44697;BME280;57264;47.480;19.354;2022-11-12T02:53:36;100393.59;;;9.92;81.00
44697;BME280;57264;47.480;19.354;2022-11-12T02:56:02;100393.91;;;9.89;81.15
44697;BME280;57264;47.480;19.354;2022-11-12T02:58:28;100399.19;;;10.07;80.42
44697;BME280;57264;47.480;19.354;2022-11-12T03:00:54;100397.66;;;9.96;81.04
44697;BME280;57264;47.480;19.354;2022-11-12T03:03:20;100406.22;;;9.91;81.39
44697;BME280;57264;47.480;19.354;2022-11-12T03:05:54;100412.81;;;9.97;81.25
44697;BME280;57264;47.480;19.354;2022-11-12T03:08:20;100421.34;;;9.76;82.25
44697;BME280;57264;47.480;19.354;2022-11-12T03:10:45;100416.72;;;9.60;83.58
44697;BME280;57264;47.480;19.354;2022-11-12T03:13:11;100422.91;;;9.44;84.03
44697;BME280;57264;47.480;19.354;2022-11-12T03:15:36;100432.53;;;9.47;84.37
44697;BME280;57264;47.480;19.354;2022-11-12T03:18:02;100443.50;;;9.53;83.85
44697;BME280;57264;47.480;19.354;2022-11-12T03:20:27;100429.81;;;9.47;84.36
44697;BME280;57264;47.480;19.354;2022-11-12T03:22:59;100425.31;;;9.56;84.26
44697;BME280;57264;47.480;19.354;2022-11-12T03:25:26;100422.38;;;9.41;84.12
44697;BME280;57264;47.480;19.354;2022-11-12T03:27:59;100421.94;;;9.53;83.70
44697;BME280;57264;47.480;19.354;2022-11-12T03:30:26;100421.88;;;9.45;84.01
44697;BME280;57264;47.480;19.354;2022-11-12T03:32:52;100414.00;;;9.52;83.63
44697;BME280;57264;47.480;19.354;2022-11-12T03:35:19;100411.97;;;9.54;83.23
44697;BME280;57264;47.480;19.354;2022-11-12T03:37:46;100412.81;;;9.46;83.54
44697;BME280;57264;47.480;19.354;2022-11-12T03:40:11;100415.50;;;9.46;84.04
44697;BME280;57264;47.480;19.354;2022-11-12T03:42:37;100412.31;;;9.51;83.78
44697;BME280;57264;47.480;19.354;2022-11-12T03:45:02;100410.34;;;9.61;83.67
44697;BME280;57264;47.480;19.354;2022-11-12T03:47:28;100415.88;;;9.60;83.11
44697;BME280;57264;47.480;19.354;2022-11-12T03:49:54;100408.13;;;9.57;83.27
44697;BME280;57264;47.480;19.354;2022-11-12T03:52:20;100417.38;;;9.54;83.49
44697;BME280;57264;47.480;19.354;2022-11-12T03:54:46;100413.59;;;9.39;84.31
44697;BME280;57264;47.480;19.354;2022-11-12T03:57:11;100413.66;;;9.47;83.78
44697;BME280;57264;47.480;19.354;2022-11-12T03:59:37;100407.25;;;9.48;84.00
44697;BME280;57264;47.480;19.354;2022-11-12T04:02:02;100417.19;;;9.47;83.77
44697;BME280;57264;47.480;19.354;2022-11-12T04:04:28;100418.69;;;9.42;83.97
44697;BME280;57264;47.480;19.354;2022-11-12T04:07:22;100432.84;;;9.44;83.71
44697;BME280;57264;47.480;19.354;2022-11-12T04:10:07;100429.00;;;9.20;84.86
44697;BME280;57264;47.480;19.354;2022-11-12T04:12:32;100413.59;;;9.39;83.49
44697;BME280;57264;47.480;19.354;2022-11-12T04:15:16;100406.94;;;9.25;84.25
44697;BME280;57264;47.480;19.354;2022-11-12T04:17:42;100413.22;;;9.25;83.99
44697;BME280;57264;47.480;19.354;2022-11-12T04:20:26;100407.00;;;9.33;83.44
44697;BME280;57264;47.480;19.354;2022-11-12T04:23:10;100402.47;;;9.34;83.76
44697;BME280;57264;47.480;19.354;2022-11-12T04:25:35;100404.59;;;9.22;83.94
44697;BME280;57264;47.480;19.354;2022-11-12T04:28:19;100414.66;;;9.46;83.42
44697;BME280;57264;47.480;19.354;2022-11-12T04:30:45;100417.28;;;9.29;83.58
44697;BME280;57264;47.480;19.354;2022-11-12T04:33:10;100419.97;;;9.29;84.08
44697;BME280;57264;47.480;19.354;2022-11-12T04:35:36;100421.28;;;9.25;84.27
44697;BME280;57264;47.480;19.354;2022-11-12T04:38:01;100412.47;;;9.15;84.49
44697;BME280;57264;47.480;19.354;2022-11-12T04:40:27;100418.56;;;9.17;84.68
44697;BME280;57264;47.480;19.354;2022-11-12T04:43:13;100415.13;;;9.07;84.80
44697;BME280;57264;47.480;19.354;2022-11-12T04:45:57;100418.38;;;8.93;85.35
44697;BME280;57264;47.480;19.354;2022-11-12T04:48:25;100409.63;;;8.73;86.55
44697;BME280;57264;47.480;19.354;2022-11-12T04:51:04;100419.56;;;8.72;86.73
44697;BME280;57264;47.480;19.354;2022-11-12T04:53:49;100411.50;;;8.72;86.64
44697;BME280;57264;47.480;19.354;2022-11-12T04:56:14;100407.97;;;8.98;85.52
44697;BME280;57264;47.480;19.354;2022-11-12T04:58:40;100407.88;;;8.81;86.41
44697;BME280;57264;47.480;19.354;2022-11-12T05:01:05;100398.22;;;8.97;85.48
44697;BME280;57264;47.480;19.354;2022-11-12T05:03:31;100408.38;;;8.85;86.06
44697;BME280;57264;47.480;19.354;2022-11-12T05:06:04;100403.16;;;9.09;85.08
44697;BME280;57264;47.480;19.354;2022-11-12T05:08:50;100413.84;;;9.19;84.94
44697;BME280;57264;47.480;19.354;2022-11-12T05:11:15;100402.56;;;9.24;84.95
44697;BME280;57264;47.480;19.354;2022-11-12T05:13:41;100405.38;;;9.14;84.77
44697;BME280;57264;47.480;19.354;2022-11-12T05:16:06;100416.78;;;9.08;85.02
44697;BME280;57264;47.480;19.354;2022-11-12T05:18:33;100399.19;;;9.22;84.65
44697;BME280;57264;47.480;19.354;2022-11-12T05:20:58;100399.53;;;9.27;84.23
44697;BME280;57264;47.480;19.354;2022-11-12T05:23:44;100411.59;;;9.41;83.34
44697;BME280;57264;47.480;19.354;2022-11-12T05:26:09;100400.94;;;9.73;82.63
44697;BME280;57264;47.480;19.354;2022-11-12T05:28:34;100410.56;;;9.34;83.57
44697;BME280;57264;47.480;19.354;2022-11-12T05:31:00;100415.84;;;9.51;82.82
44697;BME280;57264;47.480;19.354;2022-11-12T05:33:25;100414.41;;;9.31;83.73
44697;BME280;57264;47.480;19.354;2022-11-12T05:35:51;100409.00;;;9.31;84.26
44697;BME280;57264;47.480;19.354;2022-11-12T05:38:16;100415.63;;;9.37;84.19
44697;BME280;57264;47.480;19.354;2022-11-12T05:40:45;100410.13;;;9.20;84.15
44697;BME280;57264;47.480;19.354;2022-11-12T05:43:10;100410.47;;;9.17;84.55
44697;BME280;57264;47.480;19.354;2022-11-12T05:45:36;100419.59;;;9.24;84.00
44697;BME280;57264;47.480;19.354;2022-11-12T05:48:01;100418.78;;;9.06;84.72
44697;BME280;57264;47.480;19.354;2022-11-12T05:50:27;100414.72;;;9.28;83.80
44697;BME280;57264;47.480;19.354;2022-11-12T05:52:52;100423.69;;;9.63;81.85
44697;BME280;57264;47.480;19.354;2022-11-12T05:55:18;100426.22;;;9.72;81.17
44697;BME280;57264;47.480;19.354;2022-11-12T05:57:43;100418.81;;;9.75;80.91
44697;BME280;57264;47.480;19.354;2022-11-12T06:00:09;100427.88;;;9.65;81.46
44697;BME280;57264;47.480;19.354;2022-11-12T06:02:35;100433.94;;;9.59;82.03
44697;BME280;57264;47.480;19.354;2022-11-12T06:05:00;100435.91;;;9.23;83.89
44697;BME280;57264;47.480;19.354;2022-11-12T06:07:26;100440.31;;;9.24;83.70
44697;BME280;57264;47.480;19.354;2022-11-12T06:09:51;100443.53;;;9.01;85.58
44697;BME280;57264;47.480;19.354;2022-11-12T06:12:17;100459.28;;;9.14;84.81
44697;BME280;57264;47.480;19.354;2022-11-12T06:14:43;100453.66;;;9.25;84.40
44697;BME280;57264;47.480;19.354;2022-11-12T06:17:08;100450.56;;;9.20;85.47
44697;BME280;57264;47.480;19.354;2022-11-12T06:19:33;100458.97;;;9.17;85.24
44697;BME280;57264;47.480;19.354;2022-11-12T06:21:59;100453.59;;;9.17;85.40
44697;BME280;57264;47.480;19.354;2022-11-12T06:24:24;100472.13;;;9.46;84.74
44697;BME280;57264;47.480;19.354;2022-11-12T06:26:50;100466.84;;;9.10;85.29
44697;BME280;57264;47.480;19.354;2022-11-12T06:29:16;100465.41;;;9.24;85.50
44697;BME280;57264;47.480;19.354;2022-11-12T06:31:41;100466.47;;;8.87;86.75
44697;BME280;57264;47.480;19.354;2022-11-12T06:34:07;100477.31;;;9.40;85.43
44697;BME280;57264;47.480;19.354;2022-11-12T06:36:32;100479.56;;;9.26;85.21
44697;BME280;57264;47.480;19.354;2022-11-12T06:38:59;100482.00;;;9.11;85.99
44697;BME280;57264;47.480;19.354;2022-11-12T06:41:24;100480.41;;;9.27;85.89
44697;BME280;57264;47.480;19.354;2022-11-12T06:43:50;100487.50;;;9.54;85.00
44697;BME280;57264;47.480;19.354;2022-11-12T06:46:16;100491.56;;;9.58;84.82
44697;BME280;57264;47.480;19.354;2022-11-12T06:48:42;100491.22;;;9.53;84.11
44697;BME280;57264;47.480;19.354;2022-11-12T06:51:17;100490.28;;;9.36;85.34
44697;BME280;57264;47.480;19.354;2022-11-12T06:53:43;100488.47;;;9.19;85.86
44697;BME280;57264;47.480;19.354;2022-11-12T06:56:09;100503.16;;;9.24;85.52
44697;BME280;57264;47.480;19.354;2022-11-12T06:58:35;100516.06;;;9.39;85.20
44697;BME280;57264;47.480;19.354;2022-11-12T07:01:05;100498.50;;;9.35;85.29
44697;BME280;57264;47.480;19.354;2022-11-12T07:03:31;100491.00;;;9.46;85.67
44697;BME280;57264;47.480;19.354;2022-11-12T07:05:57;100496.41;;;9.46;85.92
44697;BME280;57264;47.480;19.354;2022-11-12T07:08:22;100503.59;;;9.38;86.08
44697;BME280;57264;47.480;19.354;2022-11-12T07:10:48;100488.56;;;9.61;85.25
44697;BME280;57264;47.480;19.354;2022-11-12T07:13:13;100500.22;;;9.36;85.92
44697;BME280;57264;47.480;19.354;2022-11-12T07:15:40;100496.66;;;9.61;85.30
44697;BME280;57264;47.480;19.354;2022-11-12T07:18:05;100501.19;;;9.95;83.49
44697;BME280;57264;47.480;19.354;2022-11-12T07:20:31;100498.41;;;9.79;84.69
44697;BME280;57264;47.480;19.354;2022-11-12T07:22:59;100495.56;;;10.15;83.24
44697;BME280;57264;47.480;19.354;2022-11-12T07:25:25;100480.13;;;10.66;80.24
44697;BME280;57264;47.480;19.354;2022-11-12T07:27:52;100496.53;;;10.97;79.29
44697;BME280;57264;47.480;19.354;2022-11-12T07:30:17;100493.63;;;10.49;80.88
44697;BME280;57264;47.480;19.354;2022-11-12T07:32:43;100498.34;;;10.56;81.21
44697;BME280;57264;47.480;19.354;2022-11-12T07:35:08;100511.53;;;10.08;81.91
44697;BME280;57264;47.480;19.354;2022-11-12T07:37:34;100501.56;;;10.51;81.12
44697;BME280;57264;47.480;19.354;2022-11-12T07:40:01;100503.66;;;10.23;81.64
44697;BME280;57264;47.480;19.354;2022-11-12T07:42:30;100511.81;;;10.31;81.51
44697;BME280;57264;47.480;19.354;2022-11-12T07:44:56;100512.50;;;9.99;82.38
44697;BME280;57264;47.480;19.354;2022-11-12T07:47:21;100503.34;;;9.83;83.44
44697;BME280;57264;47.480;19.354;2022-11-12T07:49:47;100517.00;;;9.82;83.45
44697;BME280;57264;47.480;19.354;2022-11-12T07:52:12;100507.56;;;10.28;82.15
44697;BME280;57264;47.480;19.354;2022-11-12T07:54:38;100510.00;;;10.05;82.15
44697;BME280;57264;47.480;19.354;2022-11-12T07:57:03;100512.13;;;10.28;82.40
44697;BME280;57264;47.480;19.354;2022-11-12T07:59:29;100514.13;;;10.26;82.62
44697;BME280;57264;47.480;19.354;2022-11-12T08:01:54;100527.13;;;10.81;80.91
44697;BME280;57264;47.480;19.354;2022-11-12T08:04:20;100518.50;;;10.94;79.29
44697;BME280;57264;47.480;19.354;2022-11-12T08:06:46;100522.75;;;11.13;79.13
44697;BME280;57264;47.480;19.354;2022-11-12T08:09:11;100517.13;;;10.65;79.61
44697;BME280;57264;47.480;19.354;2022-11-12T08:11:37;100522.72;;;11.46;78.22
44697;BME280;57264;47.480;19.354;2022-11-12T08:14:02;100531.06;;;12.00;75.06
44697;BME280;57264;47.480;19.354;2022-11-12T08:16:28;100532.72;;;12.41;74.00
44697;BME280;57264;47.480;19.354;2022-11-12T08:18:54;100533.38;;;12.43;73.79
44697;BME280;57264;47.480;19.354;2022-11-12T08:21:19;100542.16;;;12.13;73.71
44697;BME280;57264;47.480;19.354;2022-11-12T08:23:45;100539.47;;;12.45;73.19
44697;BME280;57264;47.480;19.354;2022-11-12T08:26:16;100545.84;;;12.52;73.13
44697;BME280;57264;47.480;19.354;2022-11-12T08:28:41;100547.38;;;12.86;71.23
44697;BME280;57264;47.480;19.354;2022-11-12T08:31:12;100542.63;;;13.26;69.92
44697;BME280;57264;47.480;19.354;2022-11-12T08:33:39;100551.69;;;13.18;70.58
44697;BME280;57264;47.480;19.354;2022-11-12T08:36:06;100545.66;;;13.84;68.65
44697;BME280;57264;47.480;19.354;2022-11-12T08:38:33;100549.59;;;14.26;66.64
44697;BME280;57264;47.480;19.354;2022-11-12T08:41:03;100540.59;;;13.66;68.35
44697;BME280;57264;47.480;19.354;2022-11-12T08:43:29;100555.44;;;13.40;69.52
44697;BME280;57264;47.480;19.354;2022-11-12T08:45:57;100547.78;;;12.43;73.31
44697;BME280;57264;47.480;19.354;2022-11-12T08:48:24;100549.28;;;13.46;69.99
44697;BME280;57264;47.480;19.354;2022-11-12T08:50:50;100543.94;;;13.53;69.54
44697;BME280;57264;47.480;19.354;2022-11-12T08:53:16;100548.47;;;13.14;70.55
44697;BME280;57264;47.480;19.354;2022-11-12T08:55:42;100559.38;;;13.38;69.87
44697;BME280;57264;47.480;19.354;2022-11-12T08:58:07;100557.59;;;13.22;69.79
44697;BME280;57264;47.480;19.354;2022-11-12T09:00:38;100558.84;;;14.02;68.25
44697;BME280;57264;47.480;19.354;2022-11-12T09:03:06;100570.75;;;13.71;68.43
44697;BME280;57264;47.480;19.354;2022-11-12T09:05:35;100566.94;;;13.42;69.40
44697;BME280;57264;47.480;19.354;2022-11-12T09:08:04;100572.34;;;14.10;67.36
44697;BME280;57264;47.480;19.354;2022-11-12T09:10:31;100588.38;;;13.90;67.17
44697;BME280;57264;47.480;19.354;2022-11-12T09:12:56;100585.84;;;14.18;66.65
44697;BME280;57264;47.480;19.354;2022-11-12T09:15:23;100597.47;;;14.12;67.11
44697;BME280;57264;47.480;19.354;2022-11-12T09:17:54;100587.47;;;14.78;64.48
44697;BME280;57264;47.480;19.354;2022-11-12T09:20:20;100593.69;;;14.43;66.10
44697;BME280;57264;47.480;19.354;2022-11-12T09:22:46;100594.44;;;15.03;65.51
44697;BME280;57264;47.480;19.354;2022-11-12T09:25:11;100592.38;;;14.53;65.22
44697;BME280;57264;47.480;19.354;2022-11-12T09:27:37;100586.97;;;15.33;63.26
44697;BME280;57264;47.480;19.354;2022-11-12T09:30:03;100588.91;;;15.39;63.01
44697;BME280;57264;47.480;19.354;2022-11-12T09:32:29;100589.13;;;15.37;62.64
44697;BME280;57264;47.480;19.354;2022-11-12T09:34:54;100593.91;;;15.85;61.43
44697;BME280;57264;47.480;19.354;2022-11-12T09:37:20;100586.13;;;15.32;62.18
44697;BME280;57264;47.480;19.354;2022-11-12T09:39:45;100594.69;;;15.51;62.25
44697;BME280;57264;47.480;19.354;2022-11-12T09:42:15;100602.25;;;15.55;62.53
44697;BME280;57264;47.480;19.354;2022-11-12T09:44:53;100597.00;;;15.54;62.61
44697;BME280;57264;47.480;19.354;2022-11-12T09:47:29;100597.16;;;15.24;63.25
44697;BME280;57264;47.480;19.354;2022-11-12T09:50:09;100596.75;;;15.06;63.32
44697;BME280;57264;47.480;19.354;2022-11-12T09:52:41;100599.28;;;15.07;63.35
44697;BME280;57264;47.480;19.354;2022-11-12T09:57:53;100599.38;;;15.35;64.00
44697;BME280;57264;47.480;19.354;2022-11-12T10:00:20;100595.75;;;15.07;63.50
44697;BME280;57264;47.480;19.354;2022-11-12T10:02:54;100605.41;;;14.73;64.53
44697;BME280;57264;47.480;19.354;2022-11-12T10:05:40;100606.31;;;14.80;64.11
44697;BME280;57264;47.480;19.354;2022-11-12T10:08:32;100610.69;;;14.15;66.68
44697;BME280;57264;47.480;19.354;2022-11-12T10:11:41;100610.50;;;14.31;67.07
44697;BME280;57264;47.480;19.354;2022-11-12T10:17:34;100621.84;;;14.65;66.38
44697;BME280;57264;47.480;19.354;2022-11-12T10:20:21;100618.34;;;14.71;65.51
44697;BME280;57264;47.480;19.354;2022-11-12T10:23:09;100611.78;;;14.21;67.35
44697;BME280;57264;47.480;19.354;2022-11-12T10:25:38;100607.31;;;14.28;66.30
44697;BME280;57264;47.480;19.354;2022-11-12T10:28:27;100611.25;;;14.40;66.88
44697;BME280;57264;47.480;19.354;2022-11-12T10:31:10;100603.25;;;14.38;67.38
44697;BME280;57264;47.480;19.354;2022-11-12T10:33:36;100604.00;;;14.32;67.87
44697;BME280;57264;47.480;19.354;2022-11-12T10:36:34;100599.97;;;13.84;67.65
44697;BME280;57264;47.480;19.354;2022-11-12T10:39:00;100595.09;;;14.53;68.24
44697;BME280;57264;47.480;19.354;2022-11-12T10:41:31;100594.75;;;14.56;66.07
44697;BME280;57264;47.480;19.354;2022-11-12T10:44:02;100589.56;;;14.62;64.45
44697;BME280;57264;47.480;19.354;2022-11-12T10:46:34;100590.38;;;14.77;64.80
44697;BME280;57264;47.480;19.354;2022-11-12T10:49:22;100591.31;;;14.84;64.25
44697;BME280;57264;47.480;19.354;2022-11-12T10:51:56;100575.72;;;14.56;64.43
44697;BME280;57264;47.480;19.354;2022-11-12T10:56:53;100577.00;;;15.18;62.46
44697;BME280;57264;47.480;19.354;2022-11-12T10:59:23;100575.28;;;15.11;62.75
44697;BME280;57264;47.480;19.354;2022-11-12T11:01:57;100569.03;;;15.17;62.22
44697;BME280;57264;47.480;19.354;2022-11-12T11:04:43;100581.34;;;15.34;63.18
44697;BME280;57264;47.480;19.354;2022-11-12T11:07:22;100570.19;;;15.08;62.94
44697;BME280;57264;47.480;19.354;2022-11-12T11:10:28;100578.03;;;15.17;62.77
44697;BME280;57264;47.480;19.354;2022-11-12T11:13:17;100581.13;;;14.93;63.41
44697;BME280;57264;47.480;19.354;2022-11-12T11:18:21;100575.28;;;15.11;62.56
44697;BME280;57264;47.480;19.354;2022-11-12T11:23:49;100583.88;;;15.86;59.15
44697;BME280;57264;47.480;19.354;2022-11-12T11:34:35;100570.38;;;17.02;56.87
44697;BME280;57264;47.480;19.354;2022-11-12T11:37:27;100556.50;;;16.97;56.25
44697;BME280;57264;47.480;19.354;2022-11-12T11:45:26;100569.09;;;16.98;54.62
44697;BME280;57264;47.480;19.354;2022-11-12T11:48:00;100558.75;;;16.80;55.86
44697;BME280;57264;47.480;19.354;2022-11-12T11:50:41;100573.13;;;16.54;54.78
44697;BME280;57264;47.480;19.354;2022-11-12T11:56:03;100574.03;;;16.68;55.81
44697;BME280;57264;47.480;19.354;2022-11-12T12:07:31;100570.06;;;16.29;58.16
44697;BME280;57264;47.480;19.354;2022-11-12T12:18:35;100534.72;;;16.42;57.10
44697;BME280;57264;47.480;19.354;2022-11-12T12:21:12;100543.06;;;15.92;57.37
44697;BME280;57264;47.480;19.354;2022-11-12T12:24:03;100537.00;;;16.45;56.21
44697;BME280;57264;47.480;19.354;2022-11-12T12:26:54;100528.25;;;16.56;56.21
44697;BME280;57264;47.480;19.354;2022-11-12T12:32:26;100537.91;;;16.59;55.93
44697;BME280;57264;47.480;19.354;2022-11-12T12:38:13;100527.03;;;16.79;56.19
44697;BME280;57264;47.480;19.354;2022-11-12T12:40:54;100520.00;;;17.11;55.97
44697;BME280;57264;47.480;19.354;2022-11-12T12:43:45;100516.28;;;16.64;56.73
44697;BME280;57264;47.480;19.354;2022-11-12T12:46:15;100527.31;;;15.88;58.06
44697;BME280;57264;47.480;19.354;2022-11-12T12:48:43;100533.31;;;16.11;57.02
44697;BME280;57264;47.480;19.354;2022-11-12T12:51:10;100518.88;;;16.17;56.24
44697;BME280;57264;47.480;19.354;2022-11-12T12:53:36;100518.13;;;16.44;55.95
44697;BME280;57264;47.480;19.354;2022-11-12T13:03:56;100527.81;;;16.05;59.06
44697;BME280;57264;47.480;19.354;2022-11-12T13:06:23;100533.66;;;16.02;59.09
44697;BME280;57264;47.480;19.354;2022-11-12T13:08:54;100532.75;;;15.88;59.93
44697;BME280;57264;47.480;19.354;2022-11-12T13:17:03;100535.81;;;15.50;61.11
44697;BME280;57264;47.480;19.354;2022-11-12T13:19:37;100528.53;;;15.57;60.86
44697;BME280;57264;47.480;19.354;2022-11-12T13:25:04;100537.19;;;15.95;59.99
44697;BME280;57264;47.480;19.354;2022-11-12T13:32:54;100542.22;;;15.35;62.64
44697;BME280;57264;47.480;19.354;2022-11-12T13:42:47;100541.47;;;15.48;61.63
44697;BME280;57264;47.480;19.354;2022-11-12T13:45:18;100537.47;;;15.44;62.01
44697;BME280;57264;47.480;19.354;2022-11-12T13:47:45;100540.13;;;15.37;61.78
44697;BME280;57264;47.480;19.354;2022-11-12T13:50:20;100532.09;;;15.08;62.15
44697;BME280;57264;47.480;19.354;2022-11-12T13:52:47;100535.34;;;14.96;63.08
44697;BME280;57264;47.480;19.354;2022-11-12T13:55:21;100540.53;;;15.13;62.66
44697;BME280;57264;47.480;19.354;2022-11-12T13:57:54;100534.53;;;14.96;63.77
44697;BME280;57264;47.480;19.354;2022-11-12T14:00:24;100534.81;;;14.65;64.81
44697;BME280;57264;47.480;19.354;2022-11-12T14:05:26;100535.19;;;14.98;65.16
44697;BME280;57264;47.480;19.354;2022-11-12T14:22:42;100522.59;;;14.24;68.14
44697;BME280;57264;47.480;19.354;2022-11-12T14:25:27;100533.00;;;14.35;67.68
44697;BME280;57264;47.480;19.354;2022-11-12T14:27:54;100535.25;;;14.32;67.34
44697;BME280;57264;47.480;19.354;2022-11-12T14:30:21;100530.00;;;14.15;67.85
44697;BME280;57264;47.480;19.354;2022-11-12T14:32:51;100536.56;;;13.91;68.73
44697;BME280;57264;47.480;19.354;2022-11-12T14:40:27;100525.44;;;13.56;69.97
44697;BME280;57264;47.480;19.354;2022-11-12T14:42:54;100534.31;;;13.50;70.79
44697;BME280;57264;47.480;19.354;2022-11-12T14:45:21;100530.84;;;13.42;71.20
44697;BME280;57264;47.480;19.354;2022-11-12T14:47:48;100526.19;;;13.27;71.83
44697;BME280;57264;47.480;19.354;2022-11-12T14:50:31;100527.34;;;13.33;71.69
44697;BME280;57264;47.480;19.354;2022-11-12T14:53:07;100533.19;;;13.22;72.45